Time;durP1;ratioP1;P1;durP2;ratioP2;P2;SDS_P1;SDS_P2;PMS_P1;PMS_P2;Temp;Humidity;BMP_temperature;BMP_pressure;BME280_temperature;BME280_humidity;BME280_pressure;Samples;Min_cycle;Max_cycle;Signal;HPM_P1;HPM_P2
2022/07/13 00:04:22;;;;;;;3.83;3.22;;;22.70;67.50;;;;;;10391724;28;20481;-60
2022/07/13 00:09:23;;;;;;;4.55;3.58;;;22.70;67.50;;;;;;10375318;28;20030;-60
2022/07/13 00:14:24;;;;;;;5.25;3.10;;;22.70;67.30;;;;;;10382475;28;20124;-61
2022/07/13 00:19:25;;;;;;;3.63;3.33;;;22.80;67.60;;;;;;10393527;28;20095;-60
2022/07/13 00:24:26;;;;;;;4.70;4.25;;;22.80;67.50;;;;;;10379908;28;20400;-60
2022/07/13 00:29:27;;;;;;;4.07;3.50;;;22.70;67.50;;;;;;10397022;28;20033;-61
2022/07/13 00:34:30;;;;;;;4.60;4.10;;;22.70;67.60;;;;;;10390536;28;20075;-60
2022/07/13 00:39:31;;;;;;;4.40;3.67;;;22.70;67.60;;;;;;10380035;28;20056;-60
2022/07/13 00:44:32;;;;;;;4.03;3.63;;;22.70;67.60;;;;;;10370602;28;20033;-60
2022/07/13 00:49:33;;;;;;;4.22;3.83;;;22.70;67.60;;;;;;10373766;28;20517;-60
2022/07/13 00:54:37;;;;;;;5.18;3.40;;;22.70;67.60;;;;;;10408403;28;20075;-60
2022/07/13 00:59:38;;;;;;;4.10;3.67;;;22.70;67.60;;;;;;10386594;28;20067;-60
2022/07/13 01:04:39;;;;;;;4.63;4.22;;;22.70;67.70;;;;;;10413057;28;20120;-61
2022/07/13 01:09:41;;;;;;;4.30;3.90;;;22.70;68.40;;;;;;10398972;28;20033;-60
2022/07/13 01:14:42;;;;;;;3.90;3.50;;;22.70;67.70;;;;;;10404457;28;20061;-60
2022/07/13 01:19:43;;;;;;;4.40;4.00;;;22.70;67.70;;;;;;10394604;28;20045;-60
2022/07/13 01:24:44;;;;;;;4.22;3.67;;;22.70;67.70;;;;;;10392141;28;20067;-60
2022/07/13 01:29:45;;;;;;;5.63;4.57;;;22.70;67.70;;;;;;10379249;28;20582;-60
2022/07/13 01:34:46;;;;;;;4.35;3.97;;;22.70;67.70;;;;;;10396636;28;20033;-60
2022/07/13 01:39:47;;;;;;;4.72;4.22;;;22.70;67.70;;;;;;10383487;28;20053;-60
2022/07/13 01:44:48;;;;;;;4.22;3.78;;;22.70;67.80;;;;;;10370410;28;20034;-60
2022/07/13 01:49:48;;;;;;;4.28;3.88;;;22.70;67.70;;;;;;10396396;28;20081;-60
2022/07/13 01:54:49;;;;;;;4.65;3.17;;;22.70;67.70;;;;;;10390087;28;20153;-60
2022/07/13 01:59:51;;;;;;;4.25;3.85;;;22.70;67.70;;;;;;10411506;28;20492;-61
2022/07/13 02:04:52;;;;;;;4.30;3.90;;;22.70;67.70;;;;;;10389706;28;20037;-60
2022/07/13 02:09:52;;;;;;;4.47;3.90;;;22.70;67.60;;;;;;10396566;28;20029;-60
2022/07/13 02:14:53;;;;;;;4.00;3.60;;;22.70;67.70;;;;;;10371719;28;20117;-60
2022/07/13 02:19:54;;;;;;;4.00;3.60;;;22.70;67.80;;;;;;10382308;28;20112;-60
2022/07/13 02:24:59;;;;;;;4.63;3.72;;;22.70;67.80;;;;;;10368882;28;20045;-60
2022/07/13 02:30:00;;;;;;;4.68;4.25;;;22.70;67.70;;;;;;10373637;28;20524;-60
2022/07/13 02:35:01;;;;;;;4.15;3.63;;;22.70;67.70;;;;;;10396405;28;20038;-60
2022/07/13 02:40:03;;;;;;;3.95;3.45;;;22.70;67.70;;;;;;10375741;28;20034;-60
2022/07/13 02:45:06;;;;;;;3.90;3.28;;;22.70;67.70;;;;;;10407896;28;20381;-60
2022/07/13 02:50:07;;;;;;;3.70;3.40;;;22.70;67.70;;;;;;10394717;28;20021;-60
2022/07/13 02:55:08;;;;;;;3.72;3.35;;;22.70;67.80;;;;;;10379756;28;20033;-60
2022/07/13 03:00:09;;;;;;;3.88;3.47;;;22.70;67.80;;;;;;10384538;28;20083;-61
2022/07/13 03:05:10;;;;;;;4.22;3.83;;;22.70;67.80;;;;;;10408682;28;20025;-61
2022/07/13 03:10:11;;;;;;;3.85;3.45;;;22.70;67.70;;;;;;10390579;28;20034;-60
2022/07/13 03:15:12;;;;;;;3.90;3.53;;;22.70;67.70;;;;;;10388308;28;20390;-61
2022/07/13 03:20:12;;;;;;;4.55;4.07;;;22.70;67.70;;;;;;10368022;28;20022;-60
2022/07/13 03:25:14;;;;;;;4.00;3.20;;;22.70;67.70;;;;;;10389565;28;20480;-60
2022/07/13 03:30:14;;;;;;;4.82;4.32;;;22.60;67.60;;;;;;10368567;28;20040;-61
2022/07/13 03:35:15;;;;;;;3.78;3.38;;;22.70;67.70;;;;;;10364456;28;20044;-60
2022/07/13 03:40:16;;;;;;;4.25;3.75;;;22.70;67.70;;;;;;10386194;28;20037;-60
2022/07/13 03:45:16;;;;;;;3.70;3.35;;;22.60;67.60;;;;;;10380273;28;20478;-61
2022/07/13 03:50:17;;;;;;;4.35;3.22;;;22.70;67.60;;;;;;10366095;28;20592;-61
2022/07/13 03:55:18;;;;;;;4.03;3.60;;;22.70;67.60;;;;;;10394874;28;20036;-60
2022/07/13 04:00:19;;;;;;;3.63;3.33;;;22.70;67.60;;;;;;10376669;28;20485;-60
2022/07/13 04:05:19;;;;;;;4.70;4.22;;;22.60;67.60;;;;;;10376546;28;20113;-60
2022/07/13 04:10:21;;;;;;;4.40;3.63;;;22.60;67.50;;;;;;10373822;28;20408;-60
2022/07/13 04:15:22;;;;;;;4.35;3.70;;;22.70;67.60;;;;;;10394364;28;20017;-60
2022/07/13 04:20:22;;;;;;;5.03;3.35;;;22.70;67.60;;;;;;10397858;28;20172;-59
2022/07/13 04:25:23;;;;;;;3.60;3.25;;;22.70;67.60;;;;;;10385745;28;20604;-61
2022/07/13 04:30:24;;;;;;;3.63;3.17;;;22.70;67.60;;;;;;10375050;28;20093;-60
2022/07/13 04:35:25;;;;;;;3.70;3.15;;;22.60;67.50;;;;;;10392956;28;20048;-61
2022/07/13 04:40:26;;;;;;;7.90;4.00;;;22.60;67.50;;;;;;10401065;28;20129;-61
2022/07/13 04:45:26;;;;;;;3.45;3.10;;;22.60;67.60;;;;;;10383463;28;20446;-61
2022/07/13 04:50:27;;;;;;;6.82;4.25;;;22.70;67.70;;;;;;10388769;28;20044;-63
2022/07/13 04:55:28;;;;;;;9.13;3.55;;;22.70;67.90;;;;;;10388725;28;20069;-62
2022/07/13 05:00:29;;;;;;;7.72;3.78;;;22.70;67.90;;;;;;10393090;28;20068;-61
2022/07/13 05:05:31;;;;;;;9.23;4.20;;;22.70;68.00;;;;;;10390881;28;20148;-63
2022/07/13 05:10:32;;;;;;;13.10;5.38;;;22.80;68.90;;;;;;10390083;28;20165;-65
2022/07/13 05:15:33;;;;;;;12.88;5.95;;;22.80;68.80;;;;;;10382546;28;20795;-64
2022/07/13 05:20:34;;;;;;;10.27;5.93;;;22.80;70.00;;;;;;10371220;28;20733;-63
2022/07/13 05:25:34;;;;;;;9.13;5.38;;;22.80;70.10;;;;;;10356036;28;20371;-65
2022/07/13 05:30:35;;;;;;;13.25;4.82;;;22.80;69.80;;;;;;10386207;28;20428;-62
2022/07/13 05:35:35;;;;;;;9.55;5.68;;;22.80;68.80;;;;;;10397501;28;20510;-63
2022/07/13 05:40:36;;;;;;;16.38;5.50;;;22.80;69.00;;;;;;10390387;28;20192;-63
2022/07/13 05:45:37;;;;;;;14.70;6.43;;;22.80;69.20;;;;;;10387143;28;20033;-63
2022/07/13 05:50:38;;;;;;;14.40;6.15;;;22.80;69.60;;;;;;10384302;28;20032;-63
2022/07/13 05:55:38;;;;;;;11.73;7.00;;;22.80;69.30;;;;;;10373258;28;20041;-64
2022/07/13 06:00:39;;;;;;;14.50;6.88;;;22.80;69.30;;;;;;10372748;28;20033;-63
2022/07/13 06:05:40;;;;;;;16.83;7.43;;;22.80;69.30;;;;;;10381195;28;20042;-62
2022/07/13 06:10:40;;;;;;;31.33;9.50;;;22.80;69.30;;;;;;10378053;28;20481;-63
2022/07/13 06:15:41;;;;;;;19.20;7.40;;;22.80;70.20;;;;;;10373981;28;20124;-63
2022/07/13 06:20:42;;;;;;;11.38;6.20;;;22.80;69.40;;;;;;10395121;28;20033;-63
2022/07/13 06:25:46;;;;;;;9.63;5.47;;;22.80;69.50;;;;;;10381641;28;20047;-64
2022/07/13 06:30:47;;;;;;;14.05;6.25;;;22.80;69.40;;;;;;10387330;28;20053;-64
2022/07/13 06:35:48;;;;;;;21.55;8.38;;;22.80;68.90;;;;;;10389121;28;20029;-64
2022/07/13 06:40:49;;;;;;;17.98;6.82;;;22.80;69.10;;;;;;10386700;28;20049;-64
2022/07/13 06:45:50;;;;;;;14.75;7.47;;;22.80;69.20;;;;;;10392542;28;20033;-65
2022/07/13 06:50:50;;;;;;;15.68;6.55;;;22.80;69.30;;;;;;10374975;28;20104;-64
2022/07/13 06:55:51;;;;;;;14.00;6.53;;;22.80;69.40;;;;;;10384458;28;20037;-64
2022/07/13 07:00:52;;;;;;;11.50;6.57;;;22.80;69.30;;;;;;10391048;28;20057;-63
2022/07/13 07:05:53;;;;;;;10.15;5.97;;;22.80;69.30;;;;;;10383419;28;20128;-64
2022/07/13 07:10:53;;;;;;;13.32;5.60;;;22.80;69.10;;;;;;10386260;28;20413;-63
2022/07/13 07:15:54;;;;;;;17.48;7.82;;;22.80;69.00;;;;;;10379058;28;20422;-64
2022/07/13 07:20:55;;;;;;;10.43;5.75;;;22.80;69.20;;;;;;10378345;28;20033;-62
2022/07/13 07:25:56;;;;;;;14.60;6.15;;;22.90;69.00;;;;;;10402393;28;20467;-64
2022/07/13 07:30:56;;;;;;;10.27;6.00;;;22.90;69.60;;;;;;10366544;28;20087;-64
2022/07/13 07:35:57;;;;;;;13.23;6.07;;;22.90;69.30;;;;;;10376865;28;20378;-64
2022/07/13 07:40:58;;;;;;;12.93;5.95;;;22.90;69.40;;;;;;10392655;28;20241;-64
2022/07/13 07:45:59;;;;;;;17.42;5.55;;;22.90;69.40;;;;;;10380928;28;20030;-63
2022/07/13 07:51:00;;;;;;;13.70;5.28;;;22.90;68.90;;;;;;10398747;28;20038;-63
2022/07/13 07:56:01;;;;;;;7.90;5.15;;;22.90;69.00;;;;;;10406631;28;20041;-63
2022/07/13 08:01:02;;;;;;;11.52;6.13;;;23.10;68.80;;;;;;10374258;28;20417;-65
2022/07/13 08:06:03;;;;;;;12.05;5.68;;;23.10;68.30;;;;;;10390349;28;20033;-62
2022/07/13 08:11:04;;;;;;;16.30;6.28;;;23.00;68.60;;;;;;10353363;28;20034;-62
2022/07/13 08:16:05;;;;;;;21.75;7.45;;;23.00;68.70;;;;;;10382993;28;20040;-62
2022/07/13 08:21:06;;;;;;;10.82;4.75;;;23.00;68.80;;;;;;10377296;28;20103;-63
2022/07/13 08:26:07;;;;;;;21.17;6.22;;;23.00;68.80;;;;;;10373201;28;20058;-63
2022/07/13 08:31:08;;;;;;;15.88;5.55;;;23.10;68.80;;;;;;10373848;28;20029;-62
2022/07/13 08:41:29;;;;;;;;;;;23.10;68.80;;;;;;10407594;28;20046;-62
2022/07/13 08:46:29;;;;;;;9.55;5.90;;;23.10;68.80;;;;;;10376808;28;19924;-62
2022/07/13 08:51:32;;;;;;;10.38;5.00;;;23.10;68.90;;;;;;10372404;28;20041;-65
2022/07/13 08:56:33;;;;;;;7.60;4.38;;;23.10;68.80;;;;;;10405661;28;20042;-64
2022/07/13 09:01:34;;;;;;;7.85;4.40;;;23.10;68.70;;;;;;10384621;28;20037;-64
2022/07/13 09:06:56;;;;;;;8.57;4.82;;;23.10;68.60;;;;;;10370444;28;20405;-65
2022/07/13 09:12:20;;;;;;;9.85;5.20;;;23.10;68.60;;;;;;10394968;28;20037;-65
2022/07/13 09:17:37;;;;;;;7.65;4.25;;;23.10;68.60;;;;;;10398548;28;20037;-64
2022/07/13 09:22:51;;;;;;;9.65;4.57;;;23.10;68.60;;;;;;10389917;28;20061;-66
2022/07/13 09:27:53;;;;;;;8.20;6.25;;;23.10;68.60;;;;;;10385534;28;20060;-65
2022/07/13 09:32:56;;;;;;;10.43;4.90;;;23.20;68.60;;;;;;10385226;28;20025;-64
2022/07/13 09:37:57;;;;;;;10.98;5.80;;;23.20;68.60;;;;;;10391925;28;20053;-64
2022/07/13 09:48:18;;;;;;;9.07;5.15;;;23.20;68.60;;;;;;10379161;28;20069;-65
2022/07/13 09:53:34;;;;;;;8.05;3.90;;;23.10;68.50;;;;;;10392033;28;20373;-64
2022/07/13 09:58:37;;;;;;;5.88;3.92;;;23.20;68.60;;;;;;10396620;28;20405;-64
2022/07/13 10:03:38;;;;;;;8.25;4.60;;;23.20;68.50;;;;;;10391380;28;20026;-64
2022/07/13 10:08:40;;;;;;;9.27;4.75;;;23.20;68.40;;;;;;10402630;28;20059;-65
2022/07/13 10:13:44;;;;;;;6.20;5.00;;;23.20;68.90;;;;;;10376805;28;20040;-65
2022/07/13 10:18:45;;;;;;;6.28;4.63;;;23.30;68.90;;;;;;10374836;28;20069;-65
2022/07/13 10:23:46;;;;;;;6.35;4.95;;;23.40;68.70;;;;;;10389373;28;20881;-65
2022/07/13 10:29:11;;;;;;;9.98;6.18;;;23.40;68.50;;;;;;10388711;28;20040;-64
2022/07/13 10:34:13;;;;;;;10.50;5.85;;;23.30;68.30;;;;;;10374942;28;20582;-64
2022/07/13 10:39:14;;;;;;;6.95;5.07;;;23.40;68.50;;;;;;10404171;28;20053;-64
2022/07/13 10:44:33;;;;;;;7.80;5.88;;;23.50;68.50;;;;;;10390011;28;20413;-64
2022/07/13 10:49:45;;;;;;;8.68;4.85;;;23.50;68.20;;;;;;10367671;28;20405;-64
2022/07/13 10:55:09;;;;;;;8.05;5.20;;;23.50;68.10;;;;;;10371821;28;20030;-65
2022/07/13 11:00:19;;;;;;;6.93;4.45;;;23.50;68.40;;;;;;10390007;28;20124;-64
2022/07/13 11:05:26;;;;;;;7.07;4.75;;;23.50;68.10;;;;;;10392587;28;20033;-63
2022/07/13 11:10:30;;;;;;;7.90;3.90;;;23.60;69.00;;;;;;10399599;28;20034;-64
2022/07/13 11:15:54;;;;;;;4.45;3.50;;;23.60;66.40;;;;;;10387038;28;20025;-64
2022/07/13 11:21:03;;;;;;;4.88;3.75;;;23.60;65.80;;;;;;10368062;28;20087;-64
2022/07/13 11:26:16;;;;;;;4.97;3.47;;;23.60;64.40;;;;;;10370598;28;20044;-63
2022/07/13 11:31:18;;;;;;;5.97;3.10;;;23.60;63.30;;;;;;10384623;28;20025;-63
2022/07/13 11:36:24;;;;;;;5.68;3.03;;;23.60;62.50;;;;;;10395104;28;20076;-64
2022/07/13 11:41:24;;;;;;;6.07;3.53;;;23.60;62.90;;;;;;10385790;28;20038;-62
2022/07/13 11:46:27;;;;;;;5.90;3.58;;;23.70;61.60;;;;;;10373771;28;20524;-65
2022/07/13 11:51:28;;;;;;;4.78;3.22;;;23.80;60.90;;;;;;10409547;28;20396;-64
2022/07/13 11:56:29;;;;;;;5.20;2.90;;;23.60;63.40;;;;;;10373299;28;20061;-57
2022/07/13 12:01:30;;;;;;;4.80;3.20;;;23.50;63.60;;;;;;10374448;28;20100;-60
2022/07/13 12:06:30;;;;;;;5.88;3.05;;;23.50;64.00;;;;;;10392585;28;20037;-64
2022/07/13 12:11:31;;;;;;;8.65;3.47;;;23.40;65.30;;;;;;10379806;28;20060;-57
2022/07/13 12:16:33;;;;;;;8.07;2.72;;;23.40;64.90;;;;;;10373387;28;20404;-61
2022/07/13 12:21:34;;;;;;;6.03;4.05;;;23.40;65.70;;;;;;10389314;28;20041;-61
2022/07/13 12:26:34;;;;;;;12.25;3.70;;;23.40;65.60;;;;;;10396275;28;20057;-61
2022/07/13 12:31:35;;;;;;;9.45;4.43;;;23.50;66.10;;;;;;10394704;28;20116;-62
2022/07/13 12:36:37;;;;;;;23.17;5.05;;;23.50;66.20;;;;;;10388488;28;20041;-61
2022/07/13 12:41:42;;;;;;;8.90;4.03;;;23.50;66.30;;;;;;10381540;28;20136;-61
2022/07/13 12:46:54;;;;;;;7.43;3.50;;;23.50;65.70;;;;;;10385332;28;20030;-61
2022/07/13 12:52:01;;;;;;;11.68;4.32;;;23.60;64.40;;;;;;10397528;28;20037;-62
2022/07/13 12:57:12;;;;;;;12.95;4.15;;;23.50;65.30;;;;;;10395133;28;20029;-62
2022/07/13 13:02:13;;;;;;;13.68;3.95;;;23.50;66.30;;;;;;10379695;28;20381;-62
2022/07/13 13:07:14;;;;;;;13.93;4.30;;;23.50;66.50;;;;;;10401872;28;20040;-62
2022/07/13 13:12:14;;;;;;;10.95;4.15;;;23.50;66.60;;;;;;10406265;28;20124;-61
2022/07/13 13:17:15;;;;;;;13.52;4.20;;;23.50;66.80;;;;;;10409879;28;20033;-63
2022/07/13 13:22:16;;;;;;;18.15;5.15;;;23.60;67.10;;;;;;10404106;28;20124;-63
2022/07/13 13:27:16;;;;;;;22.90;4.18;;;23.60;67.10;;;;;;10382880;28;20038;-63
2022/07/13 13:32:18;;;;;;;17.08;4.72;;;23.60;67.50;;;;;;10403930;28;20387;-62
2022/07/13 13:37:19;;;;;;;12.18;3.55;;;23.60;67.60;;;;;;10398637;28;20033;-62
2022/07/13 13:42:20;;;;;;;18.40;4.43;;;23.60;67.60;;;;;;10396664;28;20029;-63
2022/07/13 13:47:21;;;;;;;13.68;4.63;;;23.60;67.60;;;;;;10391807;28;20033;-62
2022/07/13 13:52:21;;;;;;;16.85;4.55;;;23.60;67.70;;;;;;10399704;28;20522;-63
2022/07/13 13:57:22;;;;;;;15.10;3.78;;;23.60;67.30;;;;;;10389442;28;20512;-63
2022/07/13 14:02:23;;;;;;;10.07;3.70;;;23.60;67.10;;;;;;10388875;28;20026;-63
2022/07/13 14:07:24;;;;;;;10.35;3.63;;;23.70;65.40;;;;;;10403686;28;20032;-62
2022/07/13 14:12:25;;;;;;;7.85;3.80;;;23.70;65.30;;;;;;10403182;28;20072;-62
2022/07/13 14:17:26;;;;;;;9.90;4.65;;;23.70;65.00;;;;;;10396517;28;20056;-61
2022/07/13 14:22:27;;;;;;;7.50;4.60;;;23.70;65.20;;;;;;10394165;28;20519;-63
2022/07/13 14:27:27;;;;;;;4.47;3.40;;;23.80;65.50;;;;;;10366461;28;20485;-62
2022/07/13 14:32:28;;;;;;;10.45;3.38;;;23.80;62.50;;;;;;10384421;28;20020;-63
2022/07/13 14:37:29;;;;;;;7.78;2.97;;;23.80;61.90;;;;;;10364942;28;20459;-62
2022/07/13 14:42:30;;;;;;;10.65;3.67;;;23.80;61.90;;;;;;10374118;28;20038;-62
2022/07/13 14:47:30;;;;;;;4.45;2.70;;;23.70;65.50;;;;;;10390596;28;20037;-63
2022/07/13 14:52:31;;;;;;;4.05;2.88;;;23.90;59.20;;;;;;10374820;28;20520;-62
2022/07/13 14:57:32;;;;;;;7.53;3.83;;;24.00;59.90;;;;;;10373349;28;20083;-63
2022/07/13 15:02:32;;;;;;;3.75;2.85;;;24.10;59.00;;;;;;10371053;28;20116;-62
2022/07/13 15:07:33;;;;;;;10.57;4.50;;;24.10;58.50;;;;;;10374859;28;20033;-63
2022/07/13 15:12:34;;;;;;;5.78;2.75;;;24.20;60.80;;;;;;10369534;28;20030;-62
2022/07/13 15:17:35;;;;;;;6.03;2.75;;;24.10;60.50;;;;;;10371774;28;20037;-63
2022/07/13 15:22:36;;;;;;;5.68;3.03;;;24.20;60.40;;;;;;10380260;28;20435;-63
2022/07/13 15:27:38;;;;;;;5.13;2.63;;;24.10;60.90;;;;;;10397391;28;21481;-63
2022/07/13 15:32:39;;;;;;;5.95;2.35;;;24.00;60.00;;;;;;10394339;28;20033;-63
2022/07/13 15:37:40;;;;;;;6.68;3.33;;;24.00;60.60;;;;;;10396486;28;20041;-62
2022/07/13 15:42:40;;;;;;;4.03;3.25;;;23.90;61.50;;;;;;10388352;28;20112;-63
2022/07/13 15:47:41;;;;;;;8.57;3.20;;;23.90;62.70;;;;;;10384607;28;20041;-63
2022/07/13 15:52:42;;;;;;;6.38;3.28;;;23.90;64.60;;;;;;10382850;28;20121;-62
2022/07/13 15:57:42;;;;;;;7.20;3.40;;;23.90;64.00;;;;;;10392591;28;20108;-63
2022/07/13 16:02:43;;;;;;;7.45;3.50;;;23.90;64.10;;;;;;10387823;28;20584;-62
2022/07/13 16:07:44;;;;;;;5.85;3.50;;;23.90;64.00;;;;;;10384636;28;20061;-60
2022/07/13 16:12:44;;;;;;;3.88;3.25;;;23.80;64.10;;;;;;10374290;28;20026;-63
2022/07/13 16:17:45;;;;;;;6.63;3.20;;;23.80;64.20;;;;;;10399002;28;20041;-59
2022/07/13 16:22:46;;;;;;;6.00;3.50;;;23.80;64.20;;;;;;10390446;28;20025;-61
2022/07/13 16:27:47;;;;;;;6.60;3.50;;;23.80;64.40;;;;;;10412232;28;20033;-60
2022/07/13 16:32:48;;;;;;;5.68;3.03;;;23.80;64.50;;;;;;10399231;28;20045;-60
2022/07/13 16:37:49;;;;;;;6.82;4.47;;;23.90;64.60;;;;;;10384630;28;20045;-59
2022/07/13 16:42:50;;;;;;;8.02;3.65;;;23.90;64.80;;;;;;10394643;28;20061;-59
2022/07/13 16:47:51;;;;;;;5.28;3.15;;;23.90;64.80;;;;;;10392960;28;20083;-58
2022/07/13 16:52:52;;;;;;;5.68;3.08;;;23.90;65.10;;;;;;10388628;28;20368;-59
2022/07/13 16:57:53;;;;;;;5.97;3.58;;;23.90;65.20;;;;;;10394818;28;20033;-59
2022/07/13 17:02:54;;;;;;;7.68;3.28;;;23.90;65.30;;;;;;10399102;28;20112;-59
2022/07/13 17:07:55;;;;;;;5.35;3.15;;;23.90;65.50;;;;;;10388135;28;20057;-59
2022/07/13 17:12:56;;;;;;;5.78;3.40;;;23.90;65.50;;;;;;10372260;28;20029;-60
2022/07/13 17:17:56;;;;;;;6.93;5.18;;;23.80;65.50;;;;;;10371158;28;20118;-60
2022/07/13 17:22:57;;;;;;;8.70;4.40;;;23.90;66.00;;;;;;10410374;28;20025;-60
2022/07/13 17:27:58;;;;;;;37.17;5.82;;;24.00;65.90;;;;;;10407936;28;20053;-62
2022/07/13 17:32:59;;;;;;;12.20;5.80;;;24.00;65.90;;;;;;10378958;28;20470;-61
2022/07/13 17:37:59;;;;;;;14.35;4.53;;;24.10;65.50;;;;;;10373974;28;20475;-62
2022/07/13 17:43:00;;;;;;;7.05;5.00;;;24.20;65.40;;;;;;10395338;28;20125;-63
2022/07/13 17:48:01;;;;;;;11.23;5.10;;;24.20;65.30;;;;;;10364916;28;20124;-64
2022/07/13 17:53:02;;;;;;;8.85;6.32;;;24.20;65.20;;;;;;10390239;28;20040;-61
2022/07/13 17:58:03;;;;;;;7.50;6.35;;;24.30;65.10;;;;;;10393030;28;20630;-64
2022/07/13 18:03:05;;;;;;;9.85;8.52;;;24.30;64.80;;;;;;10392300;28;20125;-60
2022/07/13 18:08:06;;;;;;;12.93;11.30;;;24.30;64.80;;;;;;10371305;28;20112;-59
2022/07/13 18:13:06;;;;;;;16.00;14.43;;;24.40;64.40;;;;;;10393909;28;20026;-60
2022/07/13 18:18:07;;;;;;;16.90;15.18;;;24.50;64.10;;;;;;10401807;28;20481;-61
2022/07/13 18:28:27;;;;;;;18.17;16.77;;;24.40;64.10;;;;;;10378935;28;20029;-61
2022/07/13 18:33:28;;;;;;;18.95;17.40;;;24.40;64.10;;;;;;10408024;28;20529;-60
2022/07/13 18:38:29;;;;;;;22.88;20.98;;;24.50;64.20;;;;;;10394895;28;20045;-60
2022/07/13 18:43:30;;;;;;;20.98;18.92;;;24.40;64.20;;;;;;10375758;28;20030;-61
2022/07/13 18:48:31;;;;;;;24.40;22.45;;;24.50;64.00;;;;;;10369240;28;20045;-61
2022/07/13 18:53:31;;;;;;;25.33;22.95;;;24.50;64.10;;;;;;10387782;28;20037;-60
2022/07/13 18:58:32;;;;;;;24.35;22.10;;;24.50;64.10;;;;;;10379318;28;20489;-61
2022/07/13 19:03:34;;;;;;;23.80;21.60;;;24.50;64.90;;;;;;10381075;28;20033;-60
2022/07/13 19:08:35;;;;;;;22.27;20.42;;;24.40;64.20;;;;;;10380429;28;20105;-60
2022/07/13 19:13:36;;;;;;;20.15;18.25;;;24.50;64.50;;;;;;10391577;28;20461;-61
2022/07/13 19:18:37;;;;;;;19.58;17.83;;;24.30;64.70;;;;;;10375629;28;20033;-61
2022/07/13 19:23:38;;;;;;;19.02;17.50;;;24.30;65.00;;;;;;10368348;28;20481;-61
2022/07/13 19:28:38;;;;;;;18.73;17.15;;;24.20;64.90;;;;;;10359276;28;20034;-60
2022/07/13 19:33:39;;;;;;;16.30;14.88;;;24.20;65.10;;;;;;10368046;28;20064;-60
2022/07/13 19:38:40;;;;;;;16.55;15.05;;;24.10;65.10;;;;;;10373948;28;20049;-61
2022/07/13 19:43:40;;;;;;;17.58;15.88;;;24.10;64.90;;;;;;10380776;28;20026;-60
2022/07/13 19:48:41;;;;;;;15.27;13.75;;;24.10;65.20;;;;;;10376121;28;20041;-61
2022/07/13 19:53:42;;;;;;;13.18;11.80;;;24.10;65.40;;;;;;10367213;28;20030;-61
2022/07/13 19:58:42;;;;;;;13.73;12.07;;;24.10;65.30;;;;;;10366412;28;20153;-61
2022/07/13 20:03:53;;;;;;;13.63;12.32;;;24.10;65.60;;;;;;10392529;28;20037;-60
2022/07/13 20:08:54;;;;;;;14.18;12.88;;;24.10;65.50;;;;;;10384736;28;20029;-60
2022/07/13 20:13:55;;;;;;;13.65;12.30;;;24.00;65.40;;;;;;10381001;28;20041;-60
2022/07/13 20:18:55;;;;;;;13.27;11.95;;;24.00;65.40;;;;;;10385638;28;20033;-61
2022/07/13 20:23:56;;;;;;;12.95;11.75;;;24.00;65.40;;;;;;10383310;28;20034;-60
2022/07/13 20:28:57;;;;;;;11.93;10.93;;;24.00;65.30;;;;;;10387987;28;20032;-61
2022/07/13 20:33:59;;;;;;;12.25;11.15;;;24.00;65.30;;;;;;10380513;28;20026;-60
2022/07/13 20:38:59;;;;;;;11.23;10.23;;;24.00;65.30;;;;;;10382067;28;20046;-60
2022/07/13 20:44:00;;;;;;;11.35;10.00;;;24.00;65.20;;;;;;10371759;28;20041;-60
2022/07/13 20:49:02;;;;;;;12.38;11.00;;;24.00;65.20;;;;;;10372480;28;20030;-61
2022/07/13 20:54:04;;;;;;;12.38;9.70;;;24.00;65.20;;;;;;10385206;28;20110;-61
2022/07/13 20:59:05;;;;;;;10.55;9.65;;;23.90;65.10;;;;;;10386196;28;20035;-61
2022/07/13 21:04:07;;;;;;;9.88;8.90;;;23.90;65.00;;;;;;10394615;28;20029;-61
2022/07/13 21:09:08;;;;;;;14.52;9.15;;;24.00;65.10;;;;;;10381858;28;20141;-60
2022/07/13 21:14:09;;;;;;;12.57;9.57;;;23.90;64.90;;;;;;10384941;28;20119;-60
2022/07/13 21:19:09;;;;;;;11.45;9.27;;;23.90;64.90;;;;;;10371360;28;20038;-60
2022/07/13 21:24:10;;;;;;;10.00;9.10;;;23.90;64.90;;;;;;10407215;28;20449;-60
2022/07/13 21:29:11;;;;;;;9.77;8.63;;;23.90;64.90;;;;;;10403399;28;20136;-60
2022/07/13 21:34:11;;;;;;;9.95;7.82;;;23.90;65.10;;;;;;10370707;28;20033;-60
2022/07/13 21:39:12;;;;;;;8.35;7.32;;;23.90;64.70;;;;;;10371188;28;20042;-61
2022/07/13 21:44:13;;;;;;;11.90;7.40;;;23.90;65.00;;;;;;10371683;28;20022;-61
2022/07/13 21:49:14;;;;;;;8.65;7.53;;;23.90;64.70;;;;;;10353772;28;20037;-60
2022/07/13 21:54:15;;;;;;;7.32;6.57;;;23.90;64.80;;;;;;10390986;28;20033;-60
2022/07/13 21:59:15;;;;;;;8.18;6.95;;;23.80;64.70;;;;;;10397542;28;20024;-60
2022/07/13 22:04:16;;;;;;;8.80;7.50;;;23.80;64.60;;;;;;10396888;28;20587;-60
2022/07/13 22:09:16;;;;;;;7.63;6.45;;;23.80;64.50;;;;;;10405647;28;20536;-61
2022/07/13 22:15:14;;;;;;;6.90;5.78;;;23.80;64.60;;;;;;10384783;28;20030;-61
2022/07/13 22:21:11;;;;;;;7.90;5.72;;;23.80;64.40;;;;;;10399045;28;20757;-60
2022/07/13 22:27:08;;;;;;;6.80;6.20;;;23.80;64.40;;;;;;10369908;28;20030;-60
2022/07/13 22:33:05;;;;;;;7.63;5.30;;;23.80;64.20;;;;;;10401526;28;20037;-60
2022/07/13 22:39:02;;;;;;;7.65;4.93;;;23.80;64.20;;;;;;10392719;28;20150;-60
2022/07/13 22:44:59;;;;;;;6.65;5.93;;;23.80;64.30;;;;;;10369541;28;20069;-61
2022/07/13 22:50:56;;;;;;;5.20;4.55;;;23.80;64.10;;;;;;10404382;28;20527;-61
2022/07/13 22:56:53;;;;;;;6.15;5.63;;;23.80;64.10;;;;;;10406796;28;20033;-60
2022/07/13 23:02:53;;;;;;;7.15;4.95;;;23.70;64.20;;;;;;10385125;28;20624;-60
2022/07/13 23:08:51;;;;;;;7.40;4.78;;;23.70;64.20;;;;;;10389059;28;20079;-61
2022/07/13 23:14:48;;;;;;;6.28;4.72;;;23.70;64.10;;;;;;10402475;28;20042;-60
2022/07/13 23:20:44;;;;;;;4.43;4.03;;;23.70;64.10;;;;;;10392851;28;20037;-61
2022/07/13 23:26:41;;;;;;;5.95;3.83;;;23.70;64.00;;;;;;10390445;28;20040;-61
2022/07/13 23:31:51;;;;;;;4.93;3.92;;;23.70;64.10;;;;;;10379690;28;20038;-61
2022/07/13 23:36:52;;;;;;;5.68;4.32;;;23.70;64.10;;;;;;10396814;28;20033;-61
2022/07/13 23:41:53;;;;;;;5.40;4.60;;;23.70;64.10;;;;;;10393835;28;20054;-60
2022/07/13 23:46:54;;;;;;;5.00;3.60;;;23.60;64.00;;;;;;10393593;28;20034;-60
2022/07/13 23:51:55;;;;;;;5.13;3.83;;;23.60;63.90;;;;;;10393051;28;20431;-61
2022/07/13 23:56:55;;;;;;;4.18;3.78;;;23.60;63.90;;;;;;10369757;28;20036;-60
